Time;durP1;ratioP1;P1;durP2;ratioP2;P2;SDS_P1;SDS_P2;PMS_P1;PMS_P2;Temp;Humidity;BMP_temperature;BMP_pressure;BME280_temperature;BME280_humidity;BME280_pressure;Samples;Min_cycle;Max_cycle;Signal;HPM_P1;HPM_P2
2022/10/10 00:01:38;;;;;;;36.55;32.67;;;22.30;59.90;;;;;;4804998;54;21023;-30
2022/10/10 00:06:38;;;;;;;34.83;31.20;;;22.30;60.50;;;;;;4816719;54;20992;-32
2022/10/10 00:11:39;;;;;;;34.58;30.98;;;22.30;59.90;;;;;;4795241;58;21474;-30
2022/10/10 00:16:40;;;;;;;36.10;32.20;;;22.30;59.90;;;;;;4840890;54;21055;-30
2022/10/10 00:21:41;;;;;;;36.33;32.40;;;22.30;59.90;;;;;;4871342;54;21004;-27
2022/10/10 00:26:42;;;;;;;36.33;32.25;;;22.30;59.80;;;;;;4817391;54;21060;-27
2022/10/10 00:31:43;;;;;;;34.80;31.15;;;22.30;60.00;;;;;;4795655;55;21080;-30
2022/10/10 00:36:43;;;;;;;33.78;30.12;;;22.20;59.80;;;;;;4818420;54;20999;-29
2022/10/10 00:41:44;;;;;;;35.47;31.67;;;22.30;59.90;;;;;;4849720;54;21039;-27
2022/10/10 00:46:45;;;;;;;37.67;32.95;;;22.30;59.80;;;;;;4825641;54;21489;-27
2022/10/10 00:51:49;;;;;;;34.83;31.08;;;22.20;60.30;;;;;;4820281;54;21043;-27
2022/10/10 00:57:04;;;;;;;37.10;31.08;;;22.30;59.80;;;;;;4842051;54;21094;-30
2022/10/10 01:02:05;;;;;;;34.55;30.80;;;22.30;59.70;;;;;;4795261;58;21067;-33
2022/10/10 01:07:13;;;;;;;32.90;29.37;;;22.20;59.70;;;;;;4802965;54;20992;-34
2022/10/10 01:15:27;;;;;;;34.33;30.50;;;22.30;59.70;;;;;;4805342;54;21031;-30
2022/10/10 01:22:26;;;;;;;32.90;29.33;;;22.30;59.70;;;;;;4869430;54;21008;-34
2022/10/10 01:27:50;;;;;;;34.33;30.02;;;22.30;59.70;;;;;;4795537;58;20987;-35
2022/10/10 01:32:56;;;;;;;32.33;29.02;;;22.30;59.70;;;;;;4805005;54;21008;-33
2022/10/10 01:38:43;;;;;;;32.90;29.40;;;22.20;59.60;;;;;;4798285;54;21028;-33
2022/10/10 01:43:44;;;;;;;32.33;29.02;;;22.30;59.60;;;;;;4804121;54;21060;-30
2022/10/10 01:48:49;;;;;;;33.38;29.77;;;22.30;59.70;;;;;;4795587;55;20976;-31
2022/10/10 01:56:39;;;;;;;31.30;27.95;;;22.20;59.50;;;;;;4825667;54;21566;-34
2022/10/10 02:01:56;;;;;;;32.33;28.92;;;22.20;59.60;;;;;;4803806;54;21051;-36
2022/10/10 02:07:04;;;;;;;33.42;29.55;;;22.30;59.60;;;;;;4803063;54;21062;-27
2022/10/10 02:12:06;;;;;;;32.22;28.87;;;22.20;59.50;;;;;;4807458;54;21011;-28
2022/10/10 02:17:11;;;;;;;32.28;28.77;;;22.30;59.50;;;;;;4819231;54;21059;-29
2022/10/10 02:22:13;;;;;;;32.05;28.70;;;22.20;59.40;;;;;;4809347;54;20999;-29
2022/10/10 02:27:38;;;;;;;31.00;27.75;;;22.30;59.50;;;;;;4835063;54;21043;-30
2022/10/10 02:32:48;;;;;;;31.23;27.85;;;22.30;59.50;;;;;;4852766;54;21008;-30
2022/10/10 02:37:51;;;;;;;31.08;27.75;;;22.30;59.50;;;;;;4806472;54;21018;-35
2022/10/10 02:42:54;;;;;;;30.05;26.83;;;22.30;59.50;;;;;;4816327;54;21892;-30
2022/10/10 02:47:55;;;;;;;30.00;26.80;;;22.30;59.40;;;;;;4831477;54;21064;-33
2022/10/10 02:52:57;;;;;;;30.73;27.45;;;22.30;59.50;;;;;;4800785;54;21597;-29
2022/10/10 02:57:57;;;;;;;30.12;26.85;;;22.20;59.40;;;;;;4795273;58;21007;-30
2022/10/10 03:02:58;;;;;;;29.70;26.48;;;22.20;59.40;;;;;;4830729;54;21019;-29
2022/10/10 03:07:59;;;;;;;28.60;25.52;;;22.30;59.40;;;;;;4795353;58;21506;-28
2022/10/10 03:13:00;;;;;;;30.92;27.65;;;22.20;59.30;;;;;;4803519;54;21489;-29
2022/10/10 03:18:01;;;;;;;28.48;25.40;;;22.20;59.30;;;;;;4805442;54;21517;-30
2022/10/10 03:23:01;;;;;;;28.85;25.75;;;22.20;59.30;;;;;;4802459;54;21008;-28
2022/10/10 03:28:02;;;;;;;29.33;26.23;;;22.20;59.30;;;;;;4821901;54;21075;-30
2022/10/10 03:33:03;;;;;;;28.90;25.77;;;22.20;59.20;;;;;;4805147;54;21549;-33
2022/10/10 03:38:05;;;;;;;29.40;26.30;;;22.20;59.20;;;;;;4803049;54;21047;-27
2022/10/10 03:43:07;;;;;;;29.80;26.65;;;22.20;59.10;;;;;;4813213;54;20992;-31
2022/10/10 03:48:07;;;;;;;27.98;25.05;;;22.20;59.00;;;;;;4796045;58;21064;-31
2022/10/10 03:53:09;;;;;;;27.80;24.90;;;22.20;59.00;;;;;;4803049;54;20992;-27
2022/10/10 03:58:10;;;;;;;27.17;24.27;;;22.30;59.00;;;;;;4840747;54;21008;-29
2022/10/10 04:03:11;;;;;;;27.73;24.73;;;22.20;58.80;;;;;;4803193;54;21557;-29
2022/10/10 04:08:11;;;;;;;28.33;24.83;;;22.20;59.30;;;;;;4824012;54;20995;-27
2022/10/10 04:13:12;;;;;;;28.05;24.35;;;22.20;58.80;;;;;;4815629;54;21068;-27
2022/10/10 04:18:13;;;;;;;27.17;24.10;;;22.20;58.80;;;;;;4802694;54;21040;-29
2022/10/10 04:23:14;;;;;;;25.80;23.00;;;22.20;58.90;;;;;;4795256;55;21961;-35
2022/10/10 04:28:15;;;;;;;25.88;23.17;;;22.20;58.90;;;;;;4839429;54;21550;-29
2022/10/10 04:33:16;;;;;;;27.73;24.83;;;22.20;58.90;;;;;;4858941;54;21518;-29
2022/10/10 04:38:18;;;;;;;25.98;23.27;;;22.20;58.90;;;;;;4816029;54;21091;-30
2022/10/10 04:43:19;;;;;;;27.25;24.35;;;22.20;58.80;;;;;;4855306;54;21572;-36
2022/10/10 04:48:20;;;;;;;25.67;22.90;;;22.20;59.00;;;;;;4803537;54;20996;-36
2022/10/10 04:53:21;;;;;;;26.48;23.50;;;22.20;58.80;;;;;;4797923;54;21008;-27
2022/10/10 04:58:22;;;;;;;26.50;23.70;;;22.20;58.90;;;;;;4795283;58;21490;-29
2022/10/10 05:03:23;;;;;;;26.52;23.60;;;22.20;58.80;;;;;;4796270;55;21012;-33
2022/10/10 05:08:24;;;;;;;28.95;23.77;;;22.20;58.70;;;;;;4795276;54;21613;-32
2022/10/10 05:13:25;;;;;;;26.70;22.90;;;22.20;58.70;;;;;;4836275;54;21067;-36
2022/10/10 05:18:26;;;;;;;27.60;24.60;;;22.20;58.70;;;;;;4805545;54;21083;-33
2022/10/10 05:23:26;;;;;;;27.73;24.73;;;22.20;58.70;;;;;;4814096;54;21553;-30
2022/10/10 05:28:27;;;;;;;27.23;24.10;;;22.20;58.60;;;;;;4818088;54;21004;-34
2022/10/10 05:33:28;;;;;;;28.17;24.30;;;22.20;58.60;;;;;;4795657;58;21003;-33
2022/10/10 05:38:29;;;;;;;27.75;24.75;;;22.20;58.60;;;;;;4805668;54;21581;-27
2022/10/10 05:43:30;;;;;;;28.15;23.77;;;22.20;58.60;;;;;;4808388;54;21003;-29
2022/10/10 05:48:31;;;;;;;28.23;24.48;;;22.20;58.60;;;;;;4834942;54;21004;-30
2022/10/10 05:53:32;;;;;;;29.35;24.40;;;22.20;58.60;;;;;;4822322;54;21052;-31
2022/10/10 05:58:33;;;;;;;27.58;24.25;;;22.20;58.50;;;;;;4860407;54;21067;-35
2022/10/10 06:03:34;;;;;;;29.87;24.40;;;22.20;58.50;;;;;;4807664;54;21007;-28
2022/10/10 06:08:35;;;;;;;27.52;24.48;;;22.20;58.40;;;;;;4808481;54;21048;-29
2022/10/10 06:13:37;;;;;;;29.50;25.30;;;22.20;58.40;;;;;;4794711;58;20976;-27
2022/10/10 06:18:38;;;;;;;27.20;24.17;;;22.20;58.30;;;;;;4860729;54;21080;-28
2022/10/10 06:23:38;;;;;;;29.73;24.77;;;22.20;58.30;;;;;;4833470;54;21534;-26
2022/10/10 06:28:40;;;;;;;28.50;24.73;;;22.20;58.50;;;;;;4820238;54;21059;-34
2022/10/10 06:33:44;;;;;;;29.95;24.90;;;22.20;58.10;;;;;;4795073;58;21051;-32
2022/10/10 06:38:45;;;;;;;27.52;24.30;;;22.20;58.10;;;;;;4820392;54;21576;-30
2022/10/10 06:43:48;;;;;;;31.62;25.77;;;22.20;58.10;;;;;;4804433;54;21510;-29
2022/10/10 06:48:49;;;;;;;29.90;24.75;;;22.20;58.10;;;;;;4816549;54;21011;-28
2022/10/10 06:53:50;;;;;;;32.95;25.73;;;22.20;58.00;;;;;;4815602;54;21036;-29
2022/10/10 06:58:50;;;;;;;35.88;29.83;;;22.20;58.00;;;;;;4844683;54;21004;-29
2022/10/10 07:03:52;;;;;;;31.90;27.83;;;22.20;57.30;;;;;;4795890;58;21071;-27
2022/10/10 07:08:52;;;;;;;38.42;30.12;;;22.30;57.60;;;;;;4821953;54;21012;-27
2022/10/10 07:13:53;;;;;;;38.03;31.65;;;22.30;58.00;;;;;;4791900;55;21071;-30
2022/10/10 07:18:54;;;;;;;37.90;31.77;;;22.20;57.10;;;;;;4805002;54;21012;-36
2022/10/10 07:23:55;;;;;;;42.75;31.77;;;22.30;57.00;;;;;;4798234;54;21007;-31
2022/10/10 07:28:56;;;;;;;41.70;33.75;;;22.30;56.90;;;;;;4815479;54;20996;-31
2022/10/10 07:33:57;;;;;;;43.87;34.72;;;22.30;56.80;;;;;;4808532;54;21011;-34
2022/10/10 07:38:58;;;;;;;48.85;36.95;;;22.30;57.30;;;;;;4803188;54;21092;-29
2022/10/10 07:43:59;;;;;;;46.37;36.15;;;22.40;56.70;;;;;;4798221;54;21110;-31
2022/10/10 07:48:59;;;;;;;46.58;38.00;;;22.40;56.60;;;;;;4813728;54;21055;-28
2022/10/10 07:54:02;;;;;;;52.00;40.25;;;22.40;56.50;;;;;;4801999;54;21478;-29
2022/10/10 07:59:03;;;;;;;54.60;39.78;;;22.40;56.40;;;;;;4813494;54;20996;-33
2022/10/10 08:04:04;;;;;;;49.35;39.30;;;22.40;56.20;;;;;;4795039;58;21003;-29
2022/10/10 08:09:05;;;;;;;53.38;42.53;;;22.40;56.20;;;;;;4795595;58;21481;-28
2022/10/10 08:14:05;;;;;;;56.40;42.83;;;22.40;56.10;;;;;;4832726;54;21008;-33
2022/10/10 08:19:06;;;;;;;53.87;41.83;;;22.40;56.10;;;;;;4820704;54;21000;-33
2022/10/10 08:24:07;;;;;;;56.65;44.45;;;22.50;56.20;;;;;;4851181;54;21055;-28
2022/10/10 08:29:08;;;;;;;59.33;45.47;;;22.50;56.20;;;;;;4823809;54;21096;-34
2022/10/10 08:34:09;;;;;;;62.05;46.05;;;22.50;56.10;;;;;;4818782;54;21000;-30
2022/10/10 08:39:10;;;;;;;61.55;46.63;;;22.50;56.10;;;;;;4800285;54;21027;-37
2022/10/10 08:46:09;;;;;;;61.40;48.17;;;22.50;56.10;;;;;;4808343;54;21520;-32
2022/10/10 08:51:21;;;;;;;69.22;50.67;;;22.50;56.10;;;;;;4796509;54;21051;-30
2022/10/10 08:56:28;;;;;;;72.85;51.83;;;22.50;56.10;;;;;;4794534;58;21012;-32
2022/10/10 09:01:35;;;;;;;;;;;22.50;56.10;;;;;;4798741;58;21027;-33
2022/10/10 09:08:47;;;;;;;72.97;53.30;;;22.50;56.10;;;;;;4818192;54;20323;-31
2022/10/10 09:15:48;;;;;;;74.40;53.53;;;22.50;56.10;;;;;;4816289;54;21098;-29
2022/10/10 09:21:15;;;;;;;79.53;57.00;;;22.60;56.20;;;;;;4842325;54;20988;-30
2022/10/10 09:26:30;;;;;;;73.07;56.70;;;22.60;56.20;;;;;;4867788;54;21535;-28
2022/10/10 09:31:41;;;;;;;81.53;58.85;;;22.60;56.30;;;;;;4853762;54;20999;-28
2022/10/10 09:36:44;;;;;;;76.97;58.28;;;22.60;56.30;;;;;;4805577;54;21059;-32
2022/10/10 09:41:54;;;;;;;77.30;58.70;;;22.60;56.30;;;;;;4837166;54;21026;-29
2022/10/10 09:46:56;;;;;;;76.07;57.03;;;22.60;56.40;;;;;;4812634;54;22191;-31
2022/10/10 09:52:29;;;;;;;75.78;59.30;;;22.60;56.40;;;;;;4812078;54;21031;-28
2022/10/10 09:57:39;;;;;;;85.12;62.72;;;22.60;56.50;;;;;;4810836;54;21031;-30
2022/10/10 10:02:40;;;;;;;79.25;60.50;;;22.60;56.60;;;;;;4822965;54;20988;-31
2022/10/10 10:07:47;;;;;;;85.28;60.85;;;22.60;56.60;;;;;;4813442;54;21110;-35
2022/10/10 10:12:48;;;;;;;78.55;59.00;;;22.60;56.60;;;;;;4815831;54;21490;-28
2022/10/10 10:18:30;;;;;;;75.20;57.62;;;22.70;56.90;;;;;;4825266;54;21043;-30
2022/10/10 10:23:39;;;;;;;79.45;59.63;;;22.70;57.50;;;;;;4798138;54;21481;-28
2022/10/10 10:28:40;;;;;;;81.35;57.45;;;22.70;57.70;;;;;;4804700;54;21032;-29
2022/10/10 10:36:40;;;;;;;78.07;57.15;;;22.80;58.00;;;;;;4794534;58;21095;-31
2022/10/10 10:42:01;;;;;;;69.80;54.55;;;22.80;58.20;;;;;;4828754;54;21072;-30
2022/10/10 10:47:53;;;;;;;72.18;55.97;;;22.80;58.40;;;;;;4823621;54;21438;-32
2022/10/10 10:53:14;;;;;;;65.62;52.95;;;22.90;58.60;;;;;;4818409;54;21134;-29
2022/10/10 10:58:38;;;;;;;73.53;55.28;;;22.90;58.70;;;;;;4809244;54;21178;-29
2022/10/10 11:05:48;;;;;;;69.68;54.22;;;22.90;58.90;;;;;;4814174;54;21008;-30
2022/10/10 11:11:18;;;;;;;65.85;52.95;;;22.90;59.00;;;;;;4795314;55;21093;-32
2022/10/10 11:16:34;;;;;;;72.62;53.78;;;22.90;59.10;;;;;;4798915;54;21051;-31
2022/10/10 11:21:55;;;;;;;69.87;51.37;;;22.90;59.10;;;;;;4806891;54;20984;-33
2022/10/10 11:27:03;;;;;;;68.30;50.97;;;22.90;59.10;;;;;;4823213;54;21411;-30
2022/10/10 11:32:14;;;;;;;66.05;53.87;;;22.90;59.10;;;;;;4822435;54;21028;-32
2022/10/10 11:37:26;;;;;;;65.30;51.78;;;22.90;59.20;;;;;;4795522;58;21525;-34
2022/10/10 11:42:41;;;;;;;71.22;53.13;;;22.90;59.10;;;;;;4795031;58;21483;-30
2022/10/10 11:47:58;;;;;;;68.62;53.92;;;22.90;59.10;;;;;;4795393;58;20996;-32
2022/10/10 11:53:52;;;;;;;63.67;51.95;;;22.90;59.70;;;;;;4795283;58;21460;-32
2022/10/10 11:59:04;;;;;;;77.55;54.47;;;22.90;59.30;;;;;;4796867;54;22381;-32
2022/10/10 12:04:05;;;;;;;73.93;55.83;;;22.90;59.10;;;;;;4839184;54;21674;-33
2022/10/10 12:10:26;;;;;;;79.10;57.53;;;22.90;59.90;;;;;;4801826;54;21024;-31
2022/10/10 12:15:34;;;;;;;72.93;55.35;;;22.90;59.30;;;;;;4790642;58;21048;-30
2022/10/10 12:20:36;;;;;;;66.87;51.85;;;22.80;59.30;;;;;;4793654;54;21019;-27
2022/10/10 12:25:41;;;;;;;68.55;53.40;;;22.80;59.40;;;;;;4832613;54;21079;-27
2022/10/10 12:31:42;;;;;;;71.60;53.67;;;22.80;59.50;;;;;;4797960;54;21059;-28
2022/10/10 12:36:56;;;;;;;70.07;53.78;;;22.70;59.50;;;;;;4795932;54;21020;-31
2022/10/10 12:41:56;;;;;;;70.55;53.40;;;22.70;59.60;;;;;;4804614;54;21007;-29
2022/10/10 12:47:28;;;;;;;70.87;54.85;;;22.70;59.60;;;;;;4818179;54;21486;-30
2022/10/10 12:52:34;;;;;;;71.85;53.28;;;22.70;59.60;;;;;;4829482;54;21490;-28
2022/10/10 12:57:47;;;;;;;75.03;56.60;;;22.70;59.70;;;;;;4857397;54;21474;-28
2022/10/10 13:03:00;;;;;;;73.50;55.60;;;22.70;59.70;;;;;;4798101;54;21103;-27
2022/10/10 13:08:04;;;;;;;68.37;53.97;;;22.70;59.80;;;;;;4795699;58;21015;-32
2022/10/10 13:13:19;;;;;;;65.78;53.87;;;22.70;59.80;;;;;;4808042;54;21004;-30
2022/10/10 13:18:50;;;;;;;68.35;54.00;;;22.70;59.80;;;;;;4795605;58;20991;-28
2022/10/10 13:23:55;;;;;;;64.60;52.72;;;22.70;59.80;;;;;;4807767;54;21150;-30
2022/10/10 13:29:00;;;;;;;65.25;51.63;;;22.70;59.90;;;;;;4885678;54;21044;-29
2022/10/10 13:34:05;;;;;;;64.43;51.35;;;22.70;59.90;;;;;;4829289;54;21482;-27
2022/10/10 13:39:06;;;;;;;65.28;52.40;;;22.70;59.90;;;;;;4838529;54;21123;-30
2022/10/10 13:44:22;;;;;;;63.08;51.42;;;22.60;59.80;;;;;;4801054;54;22224;-30
2022/10/10 13:49:29;;;;;;;60.60;49.72;;;22.60;59.90;;;;;;4814533;54;21514;-29
2022/10/10 13:54:46;;;;;;;63.35;49.78;;;22.60;60.00;;;;;;4838139;54;20988;-27
2022/10/10 14:00:05;;;;;;;61.42;49.08;;;22.70;60.00;;;;;;4814262;54;21008;-29
2022/10/10 14:05:13;;;;;;;63.42;49.20;;;22.60;60.00;;;;;;4795528;58;21462;-28
2022/10/10 14:10:20;;;;;;;57.60;47.55;;;22.70;60.10;;;;;;4842001;54;21075;-30
2022/10/10 14:18:52;;;;;;;56.33;45.53;;;22.60;60.10;;;;;;4807917;54;21075;-31
2022/10/10 14:23:53;;;;;;;59.33;48.47;;;22.60;60.10;;;;;;4796742;54;21035;-36
2022/10/10 14:28:54;;;;;;;59.30;47.92;;;22.60;60.10;;;;;;4832309;54;21127;-31
2022/10/10 14:33:55;;;;;;;60.28;48.30;;;22.60;60.20;;;;;;4806228;54;21015;-31
2022/10/10 14:38:55;;;;;;;59.88;48.63;;;22.60;60.20;;;;;;4798696;54;21067;-28
2022/10/10 14:43:56;;;;;;;59.72;48.65;;;22.60;60.30;;;;;;4795096;58;21020;-26
2022/10/10 14:48:57;;;;;;;63.42;49.90;;;22.60;60.20;;;;;;4818921;54;21012;-29
2022/10/10 14:53:58;;;;;;;62.03;48.28;;;22.60;60.30;;;;;;4801014;54;21055;-27
2022/10/10 14:58:58;;;;;;;56.53;48.00;;;22.60;60.40;;;;;;4820438;54;21582;-27
2022/10/10 15:03:59;;;;;;;57.15;48.92;;;22.60;60.40;;;;;;4805139;54;21068;-32
2022/10/10 15:09:00;;;;;;;56.55;47.78;;;22.60;60.50;;;;;;4826688;54;20992;-31
2022/10/10 15:14:01;;;;;;;55.80;47.08;;;22.60;60.50;;;;;;4814831;54;21020;-34
2022/10/10 15:19:02;;;;;;;55.58;48.03;;;22.60;60.50;;;;;;4805432;54;21028;-28
2022/10/10 15:24:03;;;;;;;51.90;43.92;;;22.60;60.60;;;;;;4801157;54;20996;-29
2022/10/10 15:29:04;;;;;;;54.83;45.72;;;22.60;60.60;;;;;;4818649;54;21052;-32
2022/10/10 15:34:07;;;;;;;54.47;44.78;;;22.60;60.60;;;;;;4803711;54;21075;-35
2022/10/10 15:39:10;;;;;;;54.72;44.10;;;22.60;60.70;;;;;;4839807;54;21506;-34
2022/10/10 15:44:16;;;;;;;53.92;44.15;;;22.60;60.70;;;;;;4798851;54;21490;-29
2022/10/10 15:49:17;;;;;;;59.22;46.13;;;22.60;60.80;;;;;;4843208;54;21019;-29
2022/10/10 15:54:18;;;;;;;50.70;43.50;;;22.60;60.80;;;;;;4816481;54;21588;-32
2022/10/10 15:59:18;;;;;;;52.62;44.78;;;22.60;60.80;;;;;;4856374;54;21565;-29
2022/10/10 16:04:21;;;;;;;51.90;43.38;;;22.60;60.80;;;;;;4796489;54;21040;-28
2022/10/10 16:09:22;;;;;;;53.22;44.38;;;22.60;61.00;;;;;;4811784;54;21490;-28
2022/10/10 16:14:25;;;;;;;52.67;43.50;;;22.60;60.90;;;;;;4794765;54;21004;-28
2022/10/10 16:19:26;;;;;;;50.20;43.28;;;22.60;60.90;;;;;;4795222;55;21044;-28
2022/10/10 16:24:27;;;;;;;52.80;44.28;;;22.60;61.00;;;;;;4808555;54;21802;-31
2022/10/10 16:29:28;;;;;;;50.22;44.75;;;22.60;61.00;;;;;;4839889;54;21391;-27
2022/10/10 16:34:29;;;;;;;52.70;43.67;;;22.60;61.00;;;;;;4814393;54;21019;-34
2022/10/10 16:39:29;;;;;;;48.25;41.42;;;22.60;61.10;;;;;;4794264;55;21055;-32
2022/10/10 16:44:30;;;;;;;50.03;43.05;;;22.60;61.10;;;;;;4795976;54;21019;-29
2022/10/10 16:49:31;;;;;;;51.08;43.90;;;22.60;61.20;;;;;;4795096;58;21003;-33
2022/10/10 16:54:32;;;;;;;53.30;43.92;;;22.60;61.30;;;;;;4816072;54;21581;-28
2022/10/10 16:59:33;;;;;;;52.17;43.05;;;22.60;61.30;;;;;;4802596;54;20991;-33
2022/10/10 17:04:34;;;;;;;51.63;43.83;;;22.60;61.30;;;;;;4819239;54;21538;-37
2022/10/10 17:09:35;;;;;;;53.33;45.42;;;22.60;61.30;;;;;;4810803;54;20984;-32
2022/10/10 17:14:37;;;;;;;50.97;44.63;;;22.60;61.30;;;;;;4854076;54;21023;-27
2022/10/10 17:19:38;;;;;;;48.72;43.30;;;22.60;61.40;;;;;;4804637;54;20988;-27
2022/10/10 17:24:40;;;;;;;52.03;43.40;;;22.60;61.50;;;;;;4832632;54;20999;-29
2022/10/10 17:29:41;;;;;;;54.20;45.03;;;22.60;61.50;;;;;;4794233;58;21012;-32
2022/10/10 17:34:41;;;;;;;52.03;44.33;;;22.60;61.60;;;;;;4814142;54;21075;-34
2022/10/10 17:39:42;;;;;;;54.60;44.83;;;22.60;61.70;;;;;;4796044;54;21076;-33
2022/10/10 17:44:43;;;;;;;54.53;45.35;;;22.60;61.70;;;;;;4801472;54;21004;-27
2022/10/10 17:49:45;;;;;;;54.25;46.50;;;22.60;61.70;;;;;;4795431;58;21004;-27
2022/10/10 17:54:46;;;;;;;52.88;46.72;;;22.60;61.70;;;;;;4794713;58;22027;-33
2022/10/10 17:59:47;;;;;;;52.28;46.53;;;22.60;61.70;;;;;;4795208;58;21060;-28
2022/10/10 18:04:47;;;;;;;54.28;47.22;;;22.60;61.80;;;;;;4816105;54;21004;-30
2022/10/10 18:09:51;;;;;;;57.15;50.20;;;22.60;61.90;;;;;;4809048;54;21008;-26
2022/10/10 18:14:52;;;;;;;59.00;49.17;;;22.60;61.90;;;;;;4794554;58;21058;-35
2022/10/10 18:19:53;;;;;;;61.60;50.80;;;22.60;61.90;;;;;;4803962;54;21107;-31
2022/10/10 18:24:54;;;;;;;62.88;53.20;;;22.60;61.90;;;;;;4865978;54;21042;-27
2022/10/10 18:29:55;;;;;;;62.33;53.08;;;22.60;61.90;;;;;;4797869;54;21974;-30
2022/10/10 18:34:55;;;;;;;64.60;54.72;;;22.60;61.90;;;;;;4796728;54;21031;-29
2022/10/10 18:39:56;;;;;;;66.07;54.33;;;22.60;62.00;;;;;;4807595;54;21071;-28
2022/10/10 18:44:57;;;;;;;71.43;58.10;;;22.60;62.00;;;;;;4796060;58;21048;-26
2022/10/10 18:49:59;;;;;;;69.47;59.00;;;22.60;62.00;;;;;;4820149;54;21012;-28
2022/10/10 18:54:59;;;;;;;72.10;60.33;;;22.60;62.00;;;;;;4817547;54;21442;-27
2022/10/10 19:00:00;;;;;;;74.32;61.58;;;22.60;62.00;;;;;;4832874;54;21020;-26
2022/10/10 19:05:01;;;;;;;72.78;59.47;;;22.60;61.90;;;;;;4817584;54;21012;-26
2022/10/10 19:10:04;;;;;;;71.53;60.22;;;22.60;61.90;;;;;;4798218;54;21024;-27
2022/10/10 19:15:05;;;;;;;75.37;61.42;;;22.60;61.90;;;;;;4817273;54;21020;-28
2022/10/10 19:20:07;;;;;;;74.97;63.38;;;22.60;61.90;;;;;;4817621;54;21470;-26
2022/10/10 19:25:08;;;;;;;76.65;61.70;;;22.60;61.80;;;;;;4796894;58;20980;-29
2022/10/10 19:30:14;;;;;;;77.62;65.70;;;22.60;61.90;;;;;;4801690;54;21012;-30
2022/10/10 19:35:14;;;;;;;77.82;64.00;;;22.60;61.70;;;;;;4808711;54;21124;-27
2022/10/10 19:40:15;;;;;;;79.18;66.00;;;22.50;61.70;;;;;;4801456;54;21035;-32
2022/10/10 19:45:16;;;;;;;78.05;62.45;;;22.60;61.70;;;;;;4834053;54;20996;-34
2022/10/10 19:50:17;;;;;;;80.55;65.35;;;22.50;61.60;;;;;;4809395;54;21521;-28
2022/10/10 19:55:18;;;;;;;82.03;67.47;;;22.50;61.50;;;;;;4829833;54;21537;-30
2022/10/10 20:00:19;;;;;;;82.57;69.10;;;22.50;61.40;;;;;;4810530;54;21466;-29
2022/10/10 20:05:20;;;;;;;81.25;65.75;;;22.50;61.50;;;;;;4830226;54;21034;-30
2022/10/10 20:10:21;;;;;;;79.65;68.60;;;22.50;61.40;;;;;;4811441;54;21557;-26
2022/10/10 20:15:22;;;;;;;86.28;67.28;;;22.50;61.30;;;;;;4835969;54;21032;-34
2022/10/10 20:20:23;;;;;;;86.45;68.37;;;22.50;61.40;;;;;;4814923;54;21102;-31
2022/10/10 20:25:24;;;;;;;85.47;68.45;;;22.50;61.10;;;;;;4858289;54;21497;-29
2022/10/10 20:30:25;;;;;;;84.75;69.62;;;22.50;60.60;;;;;;4812584;54;21100;-28
2022/10/10 20:35:25;;;;;;;84.13;70.05;;;22.50;61.10;;;;;;4805824;54;21083;-31
2022/10/10 20:40:27;;;;;;;84.25;70.18;;;22.50;61.00;;;;;;4812753;54;21051;-34
2022/10/10 20:45:27;;;;;;;85.75;69.60;;;22.50;60.80;;;;;;4812588;54;21998;-33
2022/10/10 20:50:28;;;;;;;85.75;67.62;;;22.50;60.90;;;;;;4798283;54;21071;-35
2022/10/10 20:55:29;;;;;;;86.60;70.12;;;22.50;60.80;;;;;;4834743;54;21119;-28
2022/10/10 21:00:30;;;;;;;86.63;68.55;;;22.50;61.30;;;;;;4814199;54;21075;-31
2022/10/10 21:05:31;;;;;;;85.40;66.82;;;22.50;60.60;;;;;;4818247;54;21012;-32
2022/10/10 21:10:35;;;;;;;84.43;66.55;;;22.50;60.50;;;;;;4814447;54;21465;-25
2022/10/10 21:15:35;;;;;;;77.97;63.47;;;22.50;60.50;;;;;;4820108;54;21090;-29
2022/10/10 21:20:36;;;;;;;81.03;66.00;;;22.50;60.40;;;;;;4811107;54;21034;-28
2022/10/10 21:25:37;;;;;;;80.35;61.28;;;22.50;60.30;;;;;;4846953;54;21027;-29
2022/10/10 21:30:46;;;;;;;80.68;65.18;;;22.50;60.60;;;;;;4806529;54;21031;-30
2022/10/10 21:35:50;;;;;;;79.45;64.75;;;22.50;60.20;;;;;;4832889;54;21565;-28
2022/10/10 21:40:51;;;;;;;80.10;64.68;;;22.50;60.20;;;;;;4863512;54;21516;-29
2022/10/10 21:45:53;;;;;;;81.50;64.87;;;22.50;60.30;;;;;;4820645;54;21067;-28
2022/10/10 21:50:59;;;;;;;80.57;64.78;;;22.50;60.20;;;;;;4795243;58;21539;-27
2022/10/10 21:56:04;;;;;;;78.87;63.08;;;22.50;60.30;;;;;;4848394;54;22210;-32
2022/10/10 22:01:15;;;;;;;74.28;61.97;;;22.50;60.20;;;;;;4795349;58;21071;-29
2022/10/10 22:06:18;;;;;;;76.62;61.75;;;22.50;60.20;;;;;;4822604;54;21106;-27
2022/10/10 22:11:22;;;;;;;76.40;63.33;;;22.50;60.20;;;;;;4838221;54;21075;-29
2022/10/10 22:16:23;;;;;;;75.45;62.05;;;22.50;60.20;;;;;;4823099;54;21047;-33
2022/10/10 22:21:25;;;;;;;75.95;61.00;;;22.50;60.10;;;;;;4807159;54;21055;-29
2022/10/10 22:26:27;;;;;;;72.72;59.17;;;22.50;60.10;;;;;;4831995;54;21079;-30
2022/10/10 22:31:28;;;;;;;75.72;59.92;;;22.50;60.10;;;;;;4795382;58;21151;-30
2022/10/10 22:36:29;;;;;;;73.10;59.97;;;22.50;60.10;;;;;;4809514;54;21553;-27
2022/10/10 22:41:30;;;;;;;74.28;59.03;;;22.50;60.10;;;;;;4846906;54;20999;-26
2022/10/10 22:46:31;;;;;;;69.90;57.45;;;22.50;60.10;;;;;;4844665;54;21020;-27
2022/10/10 22:51:32;;;;;;;74.18;59.90;;;22.50;60.10;;;;;;4831019;54;21032;-36
2022/10/10 22:56:33;;;;;;;69.00;57.55;;;22.50;60.10;;;;;;4804510;54;21015;-28
2022/10/10 23:01:35;;;;;;;71.05;58.28;;;22.50;60.10;;;;;;4911219;54;21023;-35
2022/10/10 23:06:36;;;;;;;67.30;55.88;;;22.50;60.10;;;;;;4842119;54;21454;-28
2022/10/10 23:11:37;;;;;;;68.78;56.75;;;22.50;60.20;;;;;;4794804;58;20980;-27
2022/10/10 23:16:38;;;;;;;70.55;57.35;;;22.50;60.00;;;;;;4818334;54;21016;-31
2022/10/10 23:21:39;;;;;;;69.72;57.40;;;22.50;60.10;;;;;;4810925;54;20999;-30
2022/10/10 23:26:39;;;;;;;67.70;56.33;;;22.50;60.10;;;;;;4839039;54;21032;-27
2022/10/10 23:31:40;;;;;;;64.68;54.45;;;22.50;60.10;;;;;;4795097;58;21486;-31
2022/10/10 23:36:41;;;;;;;66.05;55.55;;;22.50;60.20;;;;;;4811821;54;21514;-34
2022/10/10 23:41:42;;;;;;;64.70;54.42;;;22.50;60.70;;;;;;4834897;54;21087;-34
2022/10/10 23:46:42;;;;;;;66.43;55.38;;;22.50;60.00;;;;;;4862395;54;21039;-33
2022/10/10 23:51:43;;;;;;;62.15;52.45;;;22.50;60.00;;;;;;4835231;54;21059;-30
2022/10/10 23:56:44;;;;;;;66.32;54.70;;;22.50;60.10;;;;;;4804987;54;21106;-29
